sensor_id;sensor_type;location;lat;lon;timestamp;pressure;altitude;pressure_sealevel;temperature;humidity
85189;BME280;75559;49.132;8.922;2024-01-16T00:00:22;98795.91;;;-2.63;84.76
85189;BME280;75559;49.132;8.922;2024-01-16T00:02:47;98800.38;;;-2.48;84.31
85189;BME280;75559;49.132;8.922;2024-01-16T00:05:13;98810.88;;;-2.34;84.35
85189;BME280;75559;49.132;8.922;2024-01-16T00:07:39;98810.09;;;-2.30;84.22
85189;BME280;75559;49.132;8.922;2024-01-16T00:10:07;98801.34;;;-2.32;83.92
85189;BME280;75559;49.132;8.922;2024-01-16T00:12:32;98797.19;;;-2.10;83.56
85189;BME280;75559;49.132;8.922;2024-01-16T00:14:58;98808.56;;;-1.95;82.33
85189;BME280;75559;49.132;8.922;2024-01-16T00:17:23;98797.13;;;-2.18;83.09
85189;BME280;75559;49.132;8.922;2024-01-16T00:19:49;98800.38;;;-2.45;84.42
85189;BME280;75559;49.132;8.922;2024-01-16T00:22:14;98811.53;;;-2.63;84.63
85189;BME280;75559;49.132;8.922;2024-01-16T00:24:39;98793.25;;;-2.69;85.23
85189;BME280;75559;49.132;8.922;2024-01-16T00:27:05;98789.09;;;-2.48;84.30
85189;BME280;75559;49.132;8.922;2024-01-16T00:29:30;98809.28;;;-2.20;83.72
85189;BME280;75559;49.132;8.922;2024-01-16T00:31:56;98805.84;;;-2.11;83.24
85189;BME280;75559;49.132;8.922;2024-01-16T00:34:21;98801.56;;;-2.03;82.60
85189;BME280;75559;49.132;8.922;2024-01-16T00:36:47;98806.75;;;-2.06;82.92
85189;BME280;75559;49.132;8.922;2024-01-16T00:39:12;98806.69;;;-2.17;83.04
85189;BME280;75559;49.132;8.922;2024-01-16T00:41:38;98813.69;;;-2.11;83.55
85189;BME280;75559;49.132;8.922;2024-01-16T00:44:04;98818.88;;;-2.14;82.87
85189;BME280;75559;49.132;8.922;2024-01-16T00:46:29;98813.50;;;-2.34;83.44
85189;BME280;75559;49.132;8.922;2024-01-16T00:48:55;98819.66;;;-2.26;83.14
85189;BME280;75559;49.132;8.922;2024-01-16T00:51:21;98795.25;;;-2.36;83.54
85189;BME280;75559;49.132;8.922;2024-01-16T00:53:46;98814.34;;;-2.38;83.60
85189;BME280;75559;49.132;8.922;2024-01-16T00:56:11;98796.88;;;-2.48;83.73
85189;BME280;75559;49.132;8.922;2024-01-16T00:58:38;98813.47;;;-2.39;83.78
85189;BME280;75559;49.132;8.922;2024-01-16T01:01:03;98788.16;;;-2.57;85.04
85189;BME280;75559;49.132;8.922;2024-01-16T01:03:29;98788.97;;;-2.62;85.01
85189;BME280;75559;49.132;8.922;2024-01-16T01:05:55;98802.97;;;-2.46;85.24
85189;BME280;75559;49.132;8.922;2024-01-16T01:08:20;98797.81;;;-2.40;84.50
85189;BME280;75559;49.132;8.922;2024-01-16T01:10:46;98802.41;;;-2.10;84.25
85189;BME280;75559;49.132;8.922;2024-01-16T01:13:12;98800.75;;;-1.93;83.43
85189;BME280;75559;49.132;8.922;2024-01-16T01:15:37;98799.91;;;-1.87;83.78
85189;BME280;75559;49.132;8.922;2024-01-16T01:18:03;98797.31;;;-1.86;83.45
85189;BME280;75559;49.132;8.922;2024-01-16T01:20:29;98818.28;;;-1.68;83.72
85189;BME280;75559;49.132;8.922;2024-01-16T01:22:54;98821.81;;;-1.58;82.79
85189;BME280;75559;49.132;8.922;2024-01-16T01:25:20;98823.59;;;-1.51;82.78
85189;BME280;75559;49.132;8.922;2024-01-16T01:27:45;98826.19;;;-1.48;82.53
85189;BME280;75559;49.132;8.922;2024-01-16T01:30:10;98830.56;;;-1.45;82.56
85189;BME280;75559;49.132;8.922;2024-01-16T01:32:36;98834.91;;;-1.43;82.78
85189;BME280;75559;49.132;8.922;2024-01-16T01:35:03;98834.97;;;-1.34;82.53
85189;BME280;75559;49.132;8.922;2024-01-16T01:37:28;98831.47;;;-1.39;82.55
85189;BME280;75559;49.132;8.922;2024-01-16T01:39:53;98838.44;;;-1.30;82.20
85189;BME280;75559;49.132;8.922;2024-01-16T01:42:19;98841.06;;;-1.27;82.94
85189;BME280;75559;49.132;8.922;2024-01-16T01:44:44;98854.09;;;-1.30;83.01
85189;BME280;75559;49.132;8.922;2024-01-16T01:47:09;98836.66;;;-1.42;82.73
85189;BME280;75559;49.132;8.922;2024-01-16T01:49:35;98842.81;;;-1.28;82.64
85189;BME280;75559;49.132;8.922;2024-01-16T01:52:02;98838.44;;;-1.32;82.53
85189;BME280;75559;49.132;8.922;2024-01-16T01:54:29;98848.88;;;-1.30;82.58
85189;BME280;75559;49.132;8.922;2024-01-16T01:56:55;98847.13;;;-1.34;82.83
85189;BME280;75559;49.132;8.922;2024-01-16T01:59:21;98848.84;;;-1.36;82.92
85189;BME280;75559;49.132;8.922;2024-01-16T02:01:50;98855.81;;;-1.35;82.40
85189;BME280;75559;49.132;8.922;2024-01-16T02:04:19;98851.44;;;-1.42;82.62
85189;BME280;75559;49.132;8.922;2024-01-16T02:06:44;98826.13;;;-1.63;82.67
85189;BME280;75559;49.132;8.922;2024-01-16T02:09:10;98863.59;;;-1.49;82.50
85189;BME280;75559;49.132;8.922;2024-01-16T02:11:39;98847.03;;;-1.58;82.24
85189;BME280;75559;49.132;8.922;2024-01-16T02:14:04;98875.72;;;-1.57;82.90
85189;BME280;75559;49.132;8.922;2024-01-16T02:16:38;98863.53;;;-1.61;82.53
85189;BME280;75559;49.132;8.922;2024-01-16T02:19:05;98862.53;;;-1.78;83.02
85189;BME280;75559;49.132;8.922;2024-01-16T02:21:36;98833.69;;;-2.09;83.76
85189;BME280;75559;49.132;8.922;2024-01-16T02:24:02;98861.53;;;-1.99;83.92
85189;BME280;75559;49.132;8.922;2024-01-16T02:26:31;98863.22;;;-2.08;83.88
85189;BME280;75559;49.132;8.922;2024-01-16T02:28:57;98865.81;;;-2.08;83.90
85189;BME280;75559;49.132;8.922;2024-01-16T02:31:22;98868.25;;;-2.30;83.88
85189;BME280;75559;49.132;8.922;2024-01-16T02:33:47;98864.69;;;-2.38;84.40
85189;BME280;75559;49.132;8.922;2024-01-16T02:36:13;98853.41;;;-2.37;84.36
85189;BME280;75559;49.132;8.922;2024-01-16T02:38:39;98851.56;;;-2.50;85.14
85189;BME280;75559;49.132;8.922;2024-01-16T02:41:07;98853.22;;;-2.58;85.76
85189;BME280;75559;49.132;8.922;2024-01-16T02:43:32;98851.38;;;-2.71;85.66
85189;BME280;75559;49.132;8.922;2024-01-16T02:45:58;98850.59;;;-2.61;86.27
85189;BME280;75559;49.132;8.922;2024-01-16T02:48:23;98838.44;;;-2.64;85.45
85189;BME280;75559;49.132;8.922;2024-01-16T02:50:48;98851.53;;;-2.56;85.37
85189;BME280;75559;49.132;8.922;2024-01-16T02:53:17;98861.16;;;-2.46;85.09
85189;BME280;75559;49.132;8.922;2024-01-16T02:55:45;98850.84;;;-2.32;84.38
85189;BME280;75559;49.132;8.922;2024-01-16T02:58:10;98855.25;;;-2.30;84.39
85189;BME280;75559;49.132;8.922;2024-01-16T03:00:36;98796.88;;;-2.48;83.91
85189;BME280;75559;49.132;8.922;2024-01-16T03:03:02;98857.03;;;-2.21;83.71
85189;BME280;75559;49.132;8.922;2024-01-16T03:05:27;98830.81;;;-2.39;84.31
85189;BME280;75559;49.132;8.922;2024-01-16T03:07:53;98865.69;;;-2.24;84.38
85189;BME280;75559;49.132;8.922;2024-01-16T03:10:18;98872.75;;;-2.12;83.66
85189;BME280;75559;49.132;8.922;2024-01-16T03:12:43;98869.34;;;-2.00;83.84
85189;BME280;75559;49.132;8.922;2024-01-16T03:15:09;98861.53;;;-1.97;83.01
85189;BME280;75559;49.132;8.922;2024-01-16T03:17:34;98865.03;;;-1.97;82.68
85189;BME280;75559;49.132;8.922;2024-01-16T03:20:00;98871.09;;;-2.01;82.72
85189;BME280;75559;49.132;8.922;2024-01-16T03:22:25;98869.31;;;-2.03;82.95
85189;BME280;75559;49.132;8.922;2024-01-16T03:24:50;98870.13;;;-2.13;83.38
85189;BME280;75559;49.132;8.922;2024-01-16T03:27:16;98871.84;;;-2.14;83.42
85189;BME280;75559;49.132;8.922;2024-01-16T03:29:41;98867.53;;;-2.13;83.86
85189;BME280;75559;49.132;8.922;2024-01-16T03:32:06;98866.69;;;-2.06;83.84
85189;BME280;75559;49.132;8.922;2024-01-16T03:34:32;98870.22;;;-2.01;83.87
85189;BME280;75559;49.132;8.922;2024-01-16T03:36:57;98865.88;;;-2.01;84.19
85189;BME280;75559;49.132;8.922;2024-01-16T03:39:22;98864.16;;;-1.96;84.11
85189;BME280;75559;49.132;8.922;2024-01-16T03:41:48;98870.25;;;-1.95;84.27
85189;BME280;75559;49.132;8.922;2024-01-16T03:44:13;98876.41;;;-1.85;83.69
85189;BME280;75559;49.132;8.922;2024-01-16T03:46:38;98866.97;;;-1.68;83.41
85189;BME280;75559;49.132;8.922;2024-01-16T03:49:04;98855.59;;;-1.75;82.89
85189;BME280;75559;49.132;8.922;2024-01-16T03:51:29;98871.38;;;-1.60;82.99
85189;BME280;75559;49.132;8.922;2024-01-16T03:53:54;98865.28;;;-1.55;82.97
85189;BME280;75559;49.132;8.922;2024-01-16T03:56:20;98865.31;;;-1.51;82.66
85189;BME280;75559;49.132;8.922;2024-01-16T03:58:45;98860.09;;;-1.51;83.06
85189;BME280;75559;49.132;8.922;2024-01-16T04:01:10;98857.50;;;-1.51;82.22
85189;BME280;75559;49.132;8.922;2024-01-16T04:03:38;98858.34;;;-1.52;82.40
85189;BME280;75559;49.132;8.922;2024-01-16T04:06:14;98851.41;;;-1.51;81.32
85189;BME280;75559;49.132;8.922;2024-01-16T04:08:39;98858.38;;;-1.50;81.50
85189;BME280;75559;49.132;8.922;2024-01-16T04:11:05;98859.22;;;-1.54;82.00
85189;BME280;75559;49.132;8.922;2024-01-16T04:13:30;98858.34;;;-1.52;81.57
85189;BME280;75559;49.132;8.922;2024-01-16T04:15:55;98861.00;;;-1.47;81.18
85189;BME280;75559;49.132;8.922;2024-01-16T04:18:21;98859.28;;;-1.39;81.27
85189;BME280;75559;49.132;8.922;2024-01-16T04:20:46;98861.88;;;-1.45;80.89
85189;BME280;75559;49.132;8.922;2024-01-16T04:23:14;98859.28;;;-1.38;80.23
85189;BME280;75559;49.132;8.922;2024-01-16T04:25:39;98861.91;;;-1.36;80.46
85189;BME280;75559;49.132;8.922;2024-01-16T04:28:05;98868.00;;;-1.36;80.13
85189;BME280;75559;49.132;8.922;2024-01-16T04:30:30;98872.34;;;-1.36;79.71
85189;BME280;75559;49.132;8.922;2024-01-16T04:32:56;98870.56;;;-1.46;80.88
85189;BME280;75559;49.132;8.922;2024-01-16T04:35:21;98869.69;;;-1.48;80.68
85189;BME280;75559;49.132;8.922;2024-01-16T04:37:47;98873.97;;;-1.60;80.75
85189;BME280;75559;49.132;8.922;2024-01-16T04:40:12;98875.56;;;-1.81;81.44
85189;BME280;75559;49.132;8.922;2024-01-16T04:42:37;98865.81;;;-2.10;82.43
85189;BME280;75559;49.132;8.922;2024-01-16T04:45:03;98870.94;;;-2.19;82.31
85189;BME280;75559;49.132;8.922;2024-01-16T04:47:28;98873.47;;;-2.30;83.04
85189;BME280;75559;49.132;8.922;2024-01-16T04:49:54;98870.69;;;-2.46;83.44
85189;BME280;75559;49.132;8.922;2024-01-16T04:52:19;98864.44;;;-2.67;84.22
85189;BME280;75559;49.132;8.922;2024-01-16T04:54:45;98871.28;;;-2.76;85.30
85189;BME280;75559;49.132;8.922;2024-01-16T04:57:11;98865.91;;;-2.90;85.42
85189;BME280;75559;49.132;8.922;2024-01-16T04:59:36;98867.66;;;-2.89;84.87
85189;BME280;75559;49.132;8.922;2024-01-16T05:02:02;98873.78;;;-2.87;84.62
85189;BME280;75559;49.132;8.922;2024-01-16T05:04:27;98856.47;;;-2.83;84.18
85189;BME280;75559;49.132;8.922;2024-01-16T05:06:52;98852.72;;;-3.07;85.36
85189;BME280;75559;49.132;8.922;2024-01-16T05:09:18;98867.25;;;-3.27;85.35
85189;BME280;75559;49.132;8.922;2024-01-16T05:11:45;98853.84;;;-3.58;86.49
85189;BME280;75559;49.132;8.922;2024-01-16T05:14:10;98851.88;;;-3.75;87.75
85189;BME280;75559;49.132;8.922;2024-01-16T05:16:35;98856.06;;;-3.87;87.70
85189;BME280;75559;49.132;8.922;2024-01-16T05:19:01;98852.59;;;-3.87;87.60
85189;BME280;75559;49.132;8.922;2024-01-16T05:21:27;98853.47;;;-3.87;88.65
85189;BME280;75559;49.132;8.922;2024-01-16T05:23:52;98856.25;;;-3.73;87.91
85189;BME280;75559;49.132;8.922;2024-01-16T05:26:17;98843.41;;;-3.61;85.99
85189;BME280;75559;49.132;8.922;2024-01-16T05:28:43;98852.06;;;-3.62;87.01
85189;BME280;75559;49.132;8.922;2024-01-16T05:31:08;98827.81;;;-3.59;85.78
85189;BME280;75559;49.132;8.922;2024-01-16T05:33:33;98841.78;;;-3.51;85.94
85189;BME280;75559;49.132;8.922;2024-01-16T05:35:58;98838.38;;;-3.47;85.91
85189;BME280;75559;49.132;8.922;2024-01-16T05:38:24;98841.81;;;-3.50;85.93
85189;BME280;75559;49.132;8.922;2024-01-16T05:40:49;98840.91;;;-3.52;85.86
85189;BME280;75559;49.132;8.922;2024-01-16T05:43:15;98834.72;;;-3.61;85.67
85189;BME280;75559;49.132;8.922;2024-01-16T05:45:40;98836.41;;;-3.65;86.32
85189;BME280;75559;49.132;8.922;2024-01-16T05:48:06;98833.72;;;-3.72;86.40
85189;BME280;75559;49.132;8.922;2024-01-16T05:50:36;98815.25;;;-3.94;87.05
85189;BME280;75559;49.132;8.922;2024-01-16T05:53:01;98830.78;;;-3.98;86.83
85189;BME280;75559;49.132;8.922;2024-01-16T05:55:27;98818.47;;;-4.10;86.52
85189;BME280;75559;49.132;8.922;2024-01-16T05:57:54;98815.03;;;-4.07;87.66
85189;BME280;75559;49.132;8.922;2024-01-16T06:00:19;98821.97;;;-4.06;87.46
85189;BME280;75559;49.132;8.922;2024-01-16T06:02:47;98804.47;;;-4.20;87.00
85189;BME280;75559;49.132;8.922;2024-01-16T06:05:13;98801.91;;;-4.18;87.63
85189;BME280;75559;49.132;8.922;2024-01-16T06:07:38;98805.28;;;-4.24;85.84
85189;BME280;75559;49.132;8.922;2024-01-16T06:10:05;98807.72;;;-4.34;85.62
85189;BME280;75559;49.132;8.922;2024-01-16T06:12:31;98779.81;;;-4.49;86.32
85189;BME280;75559;49.132;8.922;2024-01-16T06:14:56;98803.28;;;-4.41;87.41
85189;BME280;75559;49.132;8.922;2024-01-16T06:17:23;98810.13;;;-4.48;86.07
85189;BME280;75559;49.132;8.922;2024-01-16T06:19:48;98808.50;;;-4.40;87.05
85189;BME280;75559;49.132;8.922;2024-01-16T06:22:13;98806.66;;;-4.47;86.82
85189;BME280;75559;49.132;8.922;2024-01-16T06:24:39;98814.47;;;-4.47;86.67
85189;BME280;75559;49.132;8.922;2024-01-16T06:27:05;98806.59;;;-4.52;87.54
85189;BME280;75559;49.132;8.922;2024-01-16T06:29:31;98784.84;;;-4.60;88.26
85189;BME280;75559;49.132;8.922;2024-01-16T06:31:57;98798.09;;;-4.41;87.98
85189;BME280;75559;49.132;8.922;2024-01-16T06:34:22;98774.50;;;-4.57;88.71
85189;BME280;75559;49.132;8.922;2024-01-16T06:36:47;98803.28;;;-4.41;88.59
85189;BME280;75559;49.132;8.922;2024-01-16T06:39:13;98804.13;;;-4.42;89.08
85189;BME280;75559;49.132;8.922;2024-01-16T06:41:41;98806.66;;;-4.47;88.16
85189;BME280;75559;49.132;8.922;2024-01-16T06:44:06;98806.63;;;-4.49;88.44
85189;BME280;75559;49.132;8.922;2024-01-16T06:46:32;98808.50;;;-4.40;89.18
85189;BME280;75559;49.132;8.922;2024-01-16T06:48:57;98809.53;;;-4.29;89.47
85189;BME280;75559;49.132;8.922;2024-01-16T06:51:22;98819.09;;;-4.26;87.92
85189;BME280;75559;49.132;8.922;2024-01-16T06:53:48;98815.69;;;-4.22;89.08
85189;BME280;75559;49.132;8.922;2024-01-16T06:56:14;98826.00;;;-4.27;88.73
85189;BME280;75559;49.132;8.922;2024-01-16T06:58:39;98801.63;;;-4.38;88.03
85189;BME280;75559;49.132;8.922;2024-01-16T07:01:05;98823.41;;;-4.28;89.35
85189;BME280;75559;49.132;8.922;2024-01-16T07:03:30;98818.19;;;-4.30;88.46
85189;BME280;75559;49.132;8.922;2024-01-16T07:05:56;98794.59;;;-4.43;89.00
85189;BME280;75559;49.132;8.922;2024-01-16T07:08:21;98809.44;;;-4.35;89.82
85189;BME280;75559;49.132;8.922;2024-01-16T07:10:46;98805.94;;;-4.37;89.81
85189;BME280;75559;49.132;8.922;2024-01-16T07:13:11;98809.75;;;-4.14;89.42
85189;BME280;75559;49.132;8.922;2024-01-16T07:15:37;98809.00;;;-4.06;88.92
85189;BME280;75559;49.132;8.922;2024-01-16T07:18:03;98815.38;;;-3.85;88.47
85189;BME280;75559;49.132;8.922;2024-01-16T07:20:28;98811.41;;;-3.55;87.23
85189;BME280;75559;49.132;8.922;2024-01-16T07:22:53;98786.22;;;-3.59;87.30
85189;BME280;75559;49.132;8.922;2024-01-16T07:25:19;98813.47;;;-3.30;86.66
85189;BME280;75559;49.132;8.922;2024-01-16T07:27:44;98811.03;;;-3.14;85.20
85189;BME280;75559;49.132;8.922;2024-01-16T07:30:13;98793.63;;;-3.19;85.51
85189;BME280;75559;49.132;8.922;2024-01-16T07:32:39;98806.75;;;-3.08;85.13
85189;BME280;75559;49.132;8.922;2024-01-16T07:35:04;98794.66;;;-3.03;85.40
85189;BME280;75559;49.132;8.922;2024-01-16T07:37:30;98777.25;;;-3.08;85.21
85189;BME280;75559;49.132;8.922;2024-01-16T07:39:55;98809.47;;;-2.97;85.30
85189;BME280;75559;49.132;8.922;2024-01-16T07:42:20;98798.22;;;-2.93;84.95
85189;BME280;75559;49.132;8.922;2024-01-16T07:44:46;98799.03;;;-3.00;84.98
85189;BME280;75559;49.132;8.922;2024-01-16T07:47:11;98796.41;;;-3.02;85.35
85189;BME280;75559;49.132;8.922;2024-01-16T07:49:36;98791.25;;;-2.96;85.33
85189;BME280;75559;49.132;8.922;2024-01-16T07:52:02;98773.81;;;-3.06;86.79
85189;BME280;75559;49.132;8.922;2024-01-16T07:54:27;98795.56;;;-2.98;85.77
85189;BME280;75559;49.132;8.922;2024-01-16T07:56:53;98798.19;;;-2.96;85.54
85189;BME280;75559;49.132;8.922;2024-01-16T07:59:18;98780.16;;;-2.81;83.60
85189;BME280;75559;49.132;8.922;2024-01-16T08:01:43;98789.91;;;-2.52;82.85
85189;BME280;75559;49.132;8.922;2024-01-16T08:04:09;98781.19;;;-2.61;82.90
85189;BME280;75559;49.132;8.922;2024-01-16T08:06:34;98806.44;;;-2.50;83.52
85189;BME280;75559;49.132;8.922;2024-01-16T08:09:00;98805.59;;;-2.45;83.73
85189;BME280;75559;49.132;8.922;2024-01-16T08:11:25;98793.47;;;-2.41;83.65
85189;BME280;75559;49.132;8.922;2024-01-16T08:13:50;98812.63;;;-2.32;82.89
85189;BME280;75559;49.132;8.922;2024-01-16T08:16:16;98806.63;;;-2.26;82.48
85189;BME280;75559;49.132;8.922;2024-01-16T08:18:41;98816.25;;;-2.17;81.96
85189;BME280;75559;49.132;8.922;2024-01-16T08:21:06;98821.50;;;-2.13;81.97
85189;BME280;75559;49.132;8.922;2024-01-16T08:23:33;98824.13;;;-2.07;81.75
85189;BME280;75559;49.132;8.922;2024-01-16T08:25:59;98818.97;;;-1.99;81.79
85189;BME280;75559;49.132;8.922;2024-01-16T08:28:24;98818.13;;;-1.92;80.91
85189;BME280;75559;49.132;8.922;2024-01-16T08:30:51;98813.78;;;-1.93;81.18
85189;BME280;75559;49.132;8.922;2024-01-16T08:33:16;98816.47;;;-1.78;79.86
85189;BME280;75559;49.132;8.922;2024-01-16T08:35:41;98828.75;;;-1.63;79.62
85189;BME280;75559;49.132;8.922;2024-01-16T08:38:07;98825.28;;;-1.57;78.95
85189;BME280;75559;49.132;8.922;2024-01-16T08:40:32;98829.69;;;-1.49;79.51
85189;BME280;75559;49.132;8.922;2024-01-16T08:42:57;98808.81;;;-1.50;78.11
85189;BME280;75559;49.132;8.922;2024-01-16T08:45:23;98821.00;;;-1.42;77.84
85189;BME280;75559;49.132;8.922;2024-01-16T08:47:49;98821.94;;;-1.28;78.30
85189;BME280;75559;49.132;8.922;2024-01-16T08:50:15;98830.72;;;-1.07;77.89
85189;BME280;75559;49.132;8.922;2024-01-16T08:52:40;98818.53;;;-1.05;77.39
85189;BME280;75559;49.132;8.922;2024-01-16T08:55:07;98827.28;;;-0.88;76.87
85189;BME280;75559;49.132;8.922;2024-01-16T08:57:34;98839.47;;;-0.76;76.26
85189;BME280;75559;49.132;8.922;2024-01-16T08:59:59;98833.41;;;-0.60;76.03
85189;BME280;75559;49.132;8.922;2024-01-16T09:02:25;98844.75;;;-0.49;75.67
85189;BME280;75559;49.132;8.922;2024-01-16T09:04:54;98824.72;;;-0.38;74.85
85189;BME280;75559;49.132;8.922;2024-01-16T09:07:19;98821.25;;;-0.23;73.45
85189;BME280;75559;49.132;8.922;2024-01-16T09:09:44;98855.22;;;-0.12;73.23
85189;BME280;75559;49.132;8.922;2024-01-16T09:12:10;98797.72;;;-0.26;72.78
85189;BME280;75559;49.132;8.922;2024-01-16T09:14:35;98857.81;;;0.20;72.70
85189;BME280;75559;49.132;8.922;2024-01-16T09:17:00;98852.56;;;0.26;72.40
85189;BME280;75559;49.132;8.922;2024-01-16T09:19:26;98859.47;;;0.50;70.55
85189;BME280;75559;49.132;8.922;2024-01-16T09:21:51;98860.38;;;0.46;71.60
85189;BME280;75559;49.132;8.922;2024-01-16T09:24:17;98856.03;;;0.32;70.94
85189;BME280;75559;49.132;8.922;2024-01-16T09:26:44;98864.78;;;0.22;71.34
85189;BME280;75559;49.132;8.922;2024-01-16T09:29:10;98872.59;;;0.44;70.81
85189;BME280;75559;49.132;8.922;2024-01-16T09:31:35;98873.44;;;0.50;70.39
85189;BME280;75559;49.132;8.922;2024-01-16T09:34:04;98865.56;;;0.70;70.28
85189;BME280;75559;49.132;8.922;2024-01-16T09:36:29;98849.69;;;1.04;68.37
85189;BME280;75559;49.132;8.922;2024-01-16T09:38:54;98865.16;;;1.48;66.60
85189;BME280;75559;49.132;8.922;2024-01-16T09:41:20;98852.69;;;1.83;66.02
85189;BME280;75559;49.132;8.922;2024-01-16T09:43:47;98864.56;;;2.21;64.78
85189;BME280;75559;49.132;8.922;2024-01-16T09:46:14;98877.81;;;2.10;63.71
85189;BME280;75559;49.132;8.922;2024-01-16T09:48:41;98866.50;;;2.04;64.29
85189;BME280;75559;49.132;8.922;2024-01-16T09:51:08;98868.47;;;1.76;65.20
85189;BME280;75559;49.132;8.922;2024-01-16T09:53:34;98855.44;;;1.62;65.82
85189;BME280;75559;49.132;8.922;2024-01-16T09:56:02;98855.56;;;1.44;66.49
85189;BME280;75559;49.132;8.922;2024-01-16T09:58:31;98848.63;;;1.40;67.65
85189;BME280;75559;49.132;8.922;2024-01-16T10:00:59;98845.94;;;1.47;66.94
85189;BME280;75559;49.132;8.922;2024-01-16T10:03:25;98846.16;;;1.11;67.49
85189;BME280;75559;49.132;8.922;2024-01-16T10:05:51;98841.88;;;0.94;68.17
85189;BME280;75559;49.132;8.922;2024-01-16T10:08:17;98840.94;;;1.08;68.38
85189;BME280;75559;49.132;8.922;2024-01-16T10:10:46;98834.72;;;1.30;67.55
85189;BME280;75559;49.132;8.922;2024-01-16T10:13:12;98829.31;;;1.50;65.85
85189;BME280;75559;49.132;8.922;2024-01-16T10:15:39;98828.91;;;2.02;64.92
85189;BME280;75559;49.132;8.922;2024-01-16T10:18:04;98821.75;;;2.16;64.18
85189;BME280;75559;49.132;8.922;2024-01-16T10:20:34;98825.00;;;2.44;63.12
85189;BME280;75559;49.132;8.922;2024-01-16T10:22:59;98811.78;;;3.21;60.43
85189;BME280;75559;49.132;8.922;2024-01-16T10:25:25;98825.88;;;5.14;56.08
85189;BME280;75559;49.132;8.922;2024-01-16T10:28:03;98824.25;;;5.48;53.63
85189;BME280;75559;49.132;8.922;2024-01-16T10:30:29;98821.59;;;4.66;55.37
85189;BME280;75559;49.132;8.922;2024-01-16T10:32:54;98816.97;;;3.24;58.23
85189;BME280;75559;49.132;8.922;2024-01-16T10:35:20;98811.84;;;3.14;60.33
85189;BME280;75559;49.132;8.922;2024-01-16T10:37:49;98806.31;;;3.33;59.83
85189;BME280;75559;49.132;8.922;2024-01-16T10:40:24;98811.75;;;3.22;60.40
85189;BME280;75559;49.132;8.922;2024-01-16T10:42:59;98803.91;;;3.19;60.61
85189;BME280;75559;49.132;8.922;2024-01-16T10:45:25;98815.22;;;3.24;59.85
85189;BME280;75559;49.132;8.922;2024-01-16T10:48:09;98805.44;;;3.34;59.69
85189;BME280;75559;49.132;8.922;2024-01-16T10:50:36;98813.19;;;2.78;60.86
85189;BME280;75559;49.132;8.922;2024-01-16T10:53:06;98792.34;;;3.29;60.04
85189;BME280;75559;49.132;8.922;2024-01-16T10:55:42;98797.00;;;3.69;58.49
85189;BME280;75559;49.132;8.922;2024-01-16T10:58:09;98772.72;;;3.53;57.82
85189;BME280;75559;49.132;8.922;2024-01-16T11:00:37;98795.81;;;3.88;56.89
85189;BME280;75559;49.132;8.922;2024-01-16T11:03:06;98798.59;;;4.30;55.63
85189;BME280;75559;49.132;8.922;2024-01-16T11:05:32;98786.25;;;4.32;56.60
85189;BME280;75559;49.132;8.922;2024-01-16T11:07:59;98789.63;;;4.83;54.01
85189;BME280;75559;49.132;8.922;2024-01-16T11:10:29;98783.09;;;5.01;55.51
85189;BME280;75559;49.132;8.922;2024-01-16T11:13:00;98780.59;;;4.95;53.44
85189;BME280;75559;49.132;8.922;2024-01-16T11:15:25;98784.56;;;4.74;54.60
85189;BME280;75559;49.132;8.922;2024-01-16T11:17:53;98780.59;;;4.52;55.10
85189;BME280;75559;49.132;8.922;2024-01-16T11:20:20;98772.78;;;4.47;54.07
85189;BME280;75559;49.132;8.922;2024-01-16T11:22:46;98777.31;;;4.40;55.84
85189;BME280;75559;49.132;8.922;2024-01-16T11:25:14;98774.03;;;5.51;53.51
85189;BME280;75559;49.132;8.922;2024-01-16T11:27:41;98758.34;;;6.49;50.06
85189;BME280;75559;49.132;8.922;2024-01-16T11:30:08;98759.63;;;4.89;52.59
85189;BME280;75559;49.132;8.922;2024-01-16T11:32:38;98748.66;;;5.46;49.90
85189;BME280;75559;49.132;8.922;2024-01-16T11:35:06;98752.50;;;4.51;53.42
85189;BME280;75559;49.132;8.922;2024-01-16T11:37:33;98753.97;;;4.22;55.57
85189;BME280;75559;49.132;8.922;2024-01-16T11:42:43;98749.13;;;4.87;52.89
85189;BME280;75559;49.132;8.922;2024-01-16T11:48:29;98734.47;;;4.74;52.85
85189;BME280;75559;49.132;8.922;2024-01-16T11:50:48;98727.69;;;4.61;53.07
85189;BME280;75559;49.132;8.922;2024-01-16T12:01:18;98719.28;;;5.95;50.70
85189;BME280;75559;49.132;8.922;2024-01-16T12:04:01;98694.59;;;5.62;49.31
85189;BME280;75559;49.132;8.922;2024-01-16T12:06:26;98708.81;;;5.21;51.97
85189;BME280;75559;49.132;8.922;2024-01-16T12:08:52;98706.16;;;4.84;52.78
85189;BME280;75559;49.132;8.922;2024-01-16T12:11:20;98693.75;;;4.47;53.02
85189;BME280;75559;49.132;8.922;2024-01-16T12:14:01;98691.09;;;4.49;54.17
85189;BME280;75559;49.132;8.922;2024-01-16T12:16:26;98681.16;;;4.61;54.54
85189;BME280;75559;49.132;8.922;2024-01-16T12:19:06;98679.94;;;4.36;56.01
85189;BME280;75559;49.132;8.922;2024-01-16T12:21:34;98676.38;;;4.38;55.51
85189;BME280;75559;49.132;8.922;2024-01-16T12:24:00;98673.91;;;4.31;56.21
85189;BME280;75559;49.132;8.922;2024-01-16T12:26:25;98662.38;;;4.36;52.77
85189;BME280;75559;49.132;8.922;2024-01-16T12:28:52;98664.38;;;5.04;50.92
85189;BME280;75559;49.132;8.922;2024-01-16T12:31:18;98657.50;;;5.34;49.50
85189;BME280;75559;49.132;8.922;2024-01-16T12:33:43;98647.03;;;5.97;49.16
85189;BME280;75559;49.132;8.922;2024-01-16T12:36:09;98656.31;;;6.43;47.90
85189;BME280;75559;49.132;8.922;2024-01-16T12:38:36;98643.16;;;5.77;48.93
85189;BME280;75559;49.132;8.922;2024-01-16T12:41:01;98651.91;;;5.80;49.85
85189;BME280;75559;49.132;8.922;2024-01-16T12:43:31;98622.56;;;6.22;49.17
85189;BME280;75559;49.132;8.922;2024-01-16T12:45:57;98645.69;;;7.28;46.05
85189;BME280;75559;49.132;8.922;2024-01-16T12:48:25;98647.91;;;7.41;46.47
85189;BME280;75559;49.132;8.922;2024-01-16T12:50:51;98642.16;;;7.02;44.96
85189;BME280;75559;49.132;8.922;2024-01-16T12:53:22;98636.06;;;5.80;47.34
85189;BME280;75559;49.132;8.922;2024-01-16T12:56:00;98639.59;;;5.79;47.45
85189;BME280;75559;49.132;8.922;2024-01-16T12:58:40;98638.50;;;6.19;47.76
85189;BME280;75559;49.132;8.922;2024-01-16T13:01:27;98626.72;;;6.60;47.85
85189;BME280;75559;49.132;8.922;2024-01-16T13:03:54;98630.44;;;7.10;46.14
85189;BME280;75559;49.132;8.922;2024-01-16T13:06:21;98624.06;;;7.16;47.29
85189;BME280;75559;49.132;8.922;2024-01-16T13:08:50;98621.75;;;7.83;45.41
85189;BME280;75559;49.132;8.922;2024-01-16T13:11:16;98617.78;;;8.19;43.63